sensor_id;sensor_type;location;lat;lon;timestamp;temperature;humidity
35305;DHT22;26433;48.034;-1.764;2023-05-23T05:00:16;16.10;83.30
35305;DHT22;26433;48.034;-1.764;2023-05-23T05:05:22;16.10;83.90
35305;DHT22;26433;48.034;-1.764;2023-05-23T05:10:26;16.30;83.80
35305;DHT22;26433;48.034;-1.764;2023-05-23T05:15:31;16.30;83.60
35305;DHT22;26433;48.034;-1.764;2023-05-23T05:20:36;16.40;83.50
35305;DHT22;26433;48.034;-1.764;2023-05-23T05:25:40;16.40;83.00
35305;DHT22;26433;48.034;-1.764;2023-05-23T05:30:47;16.50;83.00
35305;DHT22;26433;48.034;-1.764;2023-05-23T05:35:56;16.60;82.30
35305;DHT22;26433;48.034;-1.764;2023-05-23T05:40:59;16.90;90.40
35305;DHT22;26433;48.034;-1.764;2023-05-23T05:46:06;16.70;81.70
35305;DHT22;26433;48.034;-1.764;2023-05-23T05:51:09;16.80;81.50
35305;DHT22;26433;48.034;-1.764;2023-05-23T05:56:14;16.80;81.20
35305;DHT22;26433;48.034;-1.764;2023-05-23T06:01:19;16.90;81.00
35305;DHT22;26433;48.034;-1.764;2023-05-23T06:06:24;17.00;80.70
35305;DHT22;26433;48.034;-1.764;2023-05-23T06:11:27;17.10;80.20
35305;DHT22;26433;48.034;-1.764;2023-05-23T06:16:33;17.10;79.90
35305;DHT22;26433;48.034;-1.764;2023-05-23T06:21:37;17.20;79.80
35305;DHT22;26433;48.034;-1.764;2023-05-23T06:26:41;17.20;79.70
35305;DHT22;26433;48.034;-1.764;2023-05-23T06:31:46;16.70;79.50
35305;DHT22;26433;48.034;-1.764;2023-05-23T06:36:50;17.30;79.30
35305;DHT22;26433;48.034;-1.764;2023-05-23T06:41:54;17.30;79.40
35305;DHT22;26433;48.034;-1.764;2023-05-23T06:46:59;17.30;79.30
35305;DHT22;26433;48.034;-1.764;2023-05-23T06:52:03;17.40;79.20
35305;DHT22;26433;48.034;-1.764;2023-05-23T06:57:07;17.40;79.00
35305;DHT22;26433;48.034;-1.764;2023-05-23T07:02:12;17.50;79.20
35305;DHT22;26433;48.034;-1.764;2023-05-23T07:07:17;17.50;78.40
35305;DHT22;26433;48.034;-1.764;2023-05-23T07:12:21;17.60;78.20
35305;DHT22;26433;48.034;-1.764;2023-05-23T07:17:27;17.80;78.00
35305;DHT22;26433;48.034;-1.764;2023-05-23T07:22:32;17.80;77.60
35305;DHT22;26433;48.034;-1.764;2023-05-23T07:27:35;17.90;77.40
35305;DHT22;26433;48.034;-1.764;2023-05-23T07:32:41;17.90;77.20
35305;DHT22;26433;48.034;-1.764;2023-05-23T07:37:46;17.90;77.20
35305;DHT22;26433;48.034;-1.764;2023-05-23T07:42:51;17.90;77.50
35305;DHT22;26433;48.034;-1.764;2023-05-23T07:47:58;18.00;77.40
35305;DHT22;26433;48.034;-1.764;2023-05-23T07:53:03;18.00;77.00
35305;DHT22;26433;48.034;-1.764;2023-05-23T07:58:08;18.00;77.10
35305;DHT22;26433;48.034;-1.764;2023-05-23T08:03:13;18.20;76.50
35305;DHT22;26433;48.034;-1.764;2023-05-23T08:08:20;18.40;75.70
35305;DHT22;26433;48.034;-1.764;2023-05-23T08:13:23;18.70;75.10
35305;DHT22;26433;48.034;-1.764;2023-05-23T08:18:34;19.00;74.30
35305;DHT22;26433;48.034;-1.764;2023-05-23T08:23:39;19.30;73.70
35305;DHT22;26433;48.034;-1.764;2023-05-23T08:28:43;19.50;72.80
35305;DHT22;26433;48.034;-1.764;2023-05-23T08:33:49;19.80;72.20
35305;DHT22;26433;48.034;-1.764;2023-05-23T08:38:55;20.20;71.60
35305;DHT22;26433;48.034;-1.764;2023-05-23T08:43:59;20.50;71.00
35305;DHT22;26433;48.034;-1.764;2023-05-23T08:49:06;20.70;69.90
35305;DHT22;26433;48.034;-1.764;2023-05-23T08:54:11;20.70;70.40
35305;DHT22;26433;48.034;-1.764;2023-05-23T08:59:15;20.80;70.30
35305;DHT22;26433;48.034;-1.764;2023-05-23T09:04:20;21.10;69.80
35305;DHT22;26433;48.034;-1.764;2023-05-23T09:09:27;21.10;69.60
35305;DHT22;26433;48.034;-1.764;2023-05-23T09:14:31;21.20;69.40
35305;DHT22;26433;48.034;-1.764;2023-05-23T09:19:41;21.20;70.00
35305;DHT22;26433;48.034;-1.764;2023-05-23T09:24:49;21.30;69.30
35305;DHT22;26433;48.034;-1.764;2023-05-23T09:29:55;21.40;68.90
35305;DHT22;26433;48.034;-1.764;2023-05-23T09:35:02;21.80;68.30
35305;DHT22;26433;48.034;-1.764;2023-05-23T09:40:08;22.10;67.20
35305;DHT22;26433;48.034;-1.764;2023-05-23T09:45:14;22.30;66.70
35305;DHT22;26433;48.034;-1.764;2023-05-23T09:50:20;22.30;66.60
35305;DHT22;26433;48.034;-1.764;2023-05-23T09:55:25;22.30;66.60
35305;DHT22;26433;48.034;-1.764;2023-05-23T10:00:29;22.10;66.90
35305;DHT22;26433;48.034;-1.764;2023-05-23T10:05:37;21.80;67.60
35305;DHT22;26433;48.034;-1.764;2023-05-23T10:16:42;21.40;68.90
35305;DHT22;26433;48.034;-1.764;2023-05-23T10:21:51;21.30;68.90
35305;DHT22;26433;48.034;-1.764;2023-05-23T10:26:57;21.10;69.20
35305;DHT22;26433;48.034;-1.764;2023-05-23T10:32:01;21.00;69.40
35305;DHT22;26433;48.034;-1.764;2023-05-23T10:37:08;20.90;69.50
35305;DHT22;26433;48.034;-1.764;2023-05-23T10:42:16;20.80;69.60
35305;DHT22;26433;48.034;-1.764;2023-05-23T10:47:25;20.80;69.40
35305;DHT22;26433;48.034;-1.764;2023-05-23T10:52:38;21.10;68.80
35305;DHT22;26433;48.034;-1.764;2023-05-23T10:57:42;21.20;68.10
35305;DHT22;26433;48.034;-1.764;2023-05-23T11:02:52;21.20;68.10
35305;DHT22;26433;48.034;-1.764;2023-05-23T11:08:09;21.50;68.00
35305;DHT22;26433;48.034;-1.764;2023-05-23T11:13:15;22.40;65.60
35305;DHT22;26433;48.034;-1.764;2023-05-23T11:18:22;23.00;64.10
35305;DHT22;26433;48.034;-1.764;2023-05-23T11:23:39;23.40;63.20
35305;DHT22;26433;48.034;-1.764;2023-05-23T11:28:54;23.60;62.60
35305;DHT22;26433;48.034;-1.764;2023-05-23T11:34:00;24.20;62.10
35305;DHT22;26433;48.034;-1.764;2023-05-23T11:39:05;25.10;60.30
35305;DHT22;26433;48.034;-1.764;2023-05-23T11:44:13;26.00;58.90
35305;DHT22;26433;48.034;-1.764;2023-05-23T11:49:17;26.90;57.30
35305;DHT22;26433;48.034;-1.764;2023-05-23T11:54:23;27.50;56.20
35305;DHT22;26433;48.034;-1.764;2023-05-23T11:59:27;27.60;55.90
35305;DHT22;26433;48.034;-1.764;2023-05-23T12:04:31;27.90;55.70
35305;DHT22;26433;48.034;-1.764;2023-05-23T12:09:44;27.90;55.50
35305;DHT22;26433;48.034;-1.764;2023-05-23T12:14:48;27.80;55.50
35305;DHT22;26433;48.034;-1.764;2023-05-23T12:19:52;27.70;55.60
35305;DHT22;26433;48.034;-1.764;2023-05-23T12:24:57;27.60;55.60
35305;DHT22;26433;48.034;-1.764;2023-05-23T12:30:05;27.40;55.60
35305;DHT22;26433;48.034;-1.764;2023-05-23T12:35:12;27.10;55.10
35305;DHT22;26433;48.034;-1.764;2023-05-23T12:40:18;27.10;55.60
35305;DHT22;26433;48.034;-1.764;2023-05-23T12:45:23;26.90;55.70
35305;DHT22;26433;48.034;-1.764;2023-05-23T12:50:27;26.80;55.90
35305;DHT22;26433;48.034;-1.764;2023-05-23T12:55:32;26.90;55.60
35305;DHT22;26433;48.034;-1.764;2023-05-23T13:00:36;27.20;55.10
35305;DHT22;26433;48.034;-1.764;2023-05-23T13:05:39;27.70;54.40
35305;DHT22;26433;48.034;-1.764;2023-05-23T13:10:45;28.40;53.20
35305;DHT22;26433;48.034;-1.764;2023-05-23T13:15:48;28.90;52.50
35305;DHT22;26433;48.034;-1.764;2023-05-23T13:20:53;29.10;52.40
35305;DHT22;26433;48.034;-1.764;2023-05-23T13:25:58;29.50;51.80
35305;DHT22;26433;48.034;-1.764;2023-05-23T13:31:02;29.40;51.10
35305;DHT22;26433;48.034;-1.764;2023-05-23T13:36:06;29.50;51.00
35305;DHT22;26433;48.034;-1.764;2023-05-23T13:41:11;29.50;50.80
35305;DHT22;26433;48.034;-1.764;2023-05-23T13:46:14;29.60;50.80
35305;DHT22;26433;48.034;-1.764;2023-05-23T13:51:18;29.50;50.60
35305;DHT22;26433;48.034;-1.764;2023-05-23T13:56:23;29.50;50.70
35305;DHT22;26433;48.034;-1.764;2023-05-23T14:01:27;29.10;50.70
35305;DHT22;26433;48.034;-1.764;2023-05-23T14:11:36;28.50;50.70
35305;DHT22;26433;48.034;-1.764;2023-05-23T14:16:40;28.50;51.10
35305;DHT22;26433;48.034;-1.764;2023-05-23T14:21:43;28.50;51.00
35305;DHT22;26433;48.034;-1.764;2023-05-23T14:26:48;28.00;51.10
35305;DHT22;26433;48.034;-1.764;2023-05-23T14:31:52;27.30;51.60
35305;DHT22;26433;48.034;-1.764;2023-05-23T14:36:56;26.80;52.10
35305;DHT22;26433;48.034;-1.764;2023-05-23T14:42:01;26.60;52.10
35305;DHT22;26433;48.034;-1.764;2023-05-23T14:47:05;26.30;52.20
35305;DHT22;26433;48.034;-1.764;2023-05-23T14:52:08;26.10;52.20
35305;DHT22;26433;48.034;-1.764;2023-05-23T14:57:15;26.00;52.10
35305;DHT22;26433;48.034;-1.764;2023-05-23T15:02:18;26.00;51.80
35305;DHT22;26433;48.034;-1.764;2023-05-23T15:07:22;26.00;51.70
35305;DHT22;26433;48.034;-1.764;2023-05-23T15:12:27;26.20;51.40
35305;DHT22;26433;48.034;-1.764;2023-05-23T15:17:32;26.00;51.10
35305;DHT22;26433;48.034;-1.764;2023-05-23T15:22:36;27.00;51.90
35305;DHT22;26433;48.034;-1.764;2023-05-23T15:27:42;25.70;51.10
35305;DHT22;26433;48.034;-1.764;2023-05-23T15:32:47;25.50;51.30
35305;DHT22;26433;48.034;-1.764;2023-05-23T15:37:50;25.40;51.30
35305;DHT22;26433;48.034;-1.764;2023-05-23T15:42:55;25.20;51.30
35305;DHT22;26433;48.034;-1.764;2023-05-23T15:47:59;24.90;51.40
35305;DHT22;26433;48.034;-1.764;2023-05-23T15:53:03;24.70;51.60
35305;DHT22;26433;48.034;-1.764;2023-05-23T15:58:08;24.40;51.70
35305;DHT22;26433;48.034;-1.764;2023-05-23T16:03:12;24.10;51.80
35305;DHT22;26433;48.034;-1.764;2023-05-23T16:08:16;23.90;51.90
35305;DHT22;26433;48.034;-1.764;2023-05-23T16:13:21;23.70;51.50
35305;DHT22;26433;48.034;-1.764;2023-05-23T16:18:24;23.70;51.90
35305;DHT22;26433;48.034;-1.764;2023-05-23T16:23:28;23.70;51.90
35305;DHT22;26433;48.034;-1.764;2023-05-23T16:28:33;23.50;52.00
35305;DHT22;26433;48.034;-1.764;2023-05-23T16:33:37;23.40;52.70
35305;DHT22;26433;48.034;-1.764;2023-05-23T16:43:46;23.10;51.70
35305;DHT22;26433;48.034;-1.764;2023-05-23T16:48:49;23.00;52.20
35305;DHT22;26433;48.034;-1.764;2023-05-23T16:53:53;22.80;52.40
35305;DHT22;26433;48.034;-1.764;2023-05-23T16:58:58;22.50;52.50
35305;DHT22;26433;48.034;-1.764;2023-05-23T17:04:03;22.30;52.70
35305;DHT22;26433;48.034;-1.764;2023-05-23T17:09:06;22.10;53.10
35305;DHT22;26433;48.034;-1.764;2023-05-23T17:14:11;22.00;53.20
35305;DHT22;26433;48.034;-1.764;2023-05-23T17:19:15;21.70;53.50
35305;DHT22;26433;48.034;-1.764;2023-05-23T17:24:19;21.50;53.80
35305;DHT22;26433;48.034;-1.764;2023-05-23T17:29:24;21.40;54.50
35305;DHT22;26433;48.034;-1.764;2023-05-23T17:34:28;21.10;54.00
35305;DHT22;26433;48.034;-1.764;2023-05-23T17:39:31;20.90;54.00
35305;DHT22;26433;48.034;-1.764;2023-05-23T17:44:37;20.70;53.80
35305;DHT22;26433;48.034;-1.764;2023-05-23T17:49:41;20.60;53.60
35305;DHT22;26433;48.034;-1.764;2023-05-23T17:54:45;20.50;53.50
35305;DHT22;26433;48.034;-1.764;2023-05-23T17:59:50;20.30;53.50
35305;DHT22;26433;48.034;-1.764;2023-05-23T18:04:54;20.10;53.60
35305;DHT22;26433;48.034;-1.764;2023-05-23T18:09:57;19.90;53.80
35305;DHT22;26433;48.034;-1.764;2023-05-23T18:15:03;19.70;53.80
35305;DHT22;26433;48.034;-1.764;2023-05-23T18:20:09;19.60;54.00
35305;DHT22;26433;48.034;-1.764;2023-05-23T18:25:14;19.50;54.10
35305;DHT22;26433;48.034;-1.764;2023-05-23T18:30:22;19.40;54.20
35305;DHT22;26433;48.034;-1.764;2023-05-23T18:35:25;19.30;54.30
35305;DHT22;26433;48.034;-1.764;2023-05-23T18:40:29;19.30;54.30
35305;DHT22;26433;48.034;-1.764;2023-05-23T18:45:34;19.10;54.40
35305;DHT22;26433;48.034;-1.764;2023-05-23T18:50:38;19.00;54.60
35305;DHT22;26433;48.034;-1.764;2023-05-23T18:55:42;18.90;54.50
35305;DHT22;26433;48.034;-1.764;2023-05-23T19:00:47;18.70;54.70
35305;DHT22;26433;48.034;-1.764;2023-05-23T19:05:51;18.50;54.90
35305;DHT22;26433;48.034;-1.764;2023-05-23T19:10:54;18.40;55.20
35305;DHT22;26433;48.034;-1.764;2023-05-23T19:15:59;18.30;55.10
35305;DHT22;26433;48.034;-1.764;2023-05-23T19:21:03;18.20;55.30
35305;DHT22;26433;48.034;-1.764;2023-05-23T19:26:06;18.10;55.50
35305;DHT22;26433;48.034;-1.764;2023-05-23T19:31:12;17.90;55.70
35305;DHT22;26433;48.034;-1.764;2023-05-23T19:36:16;17.80;55.90
35305;DHT22;26433;48.034;-1.764;2023-05-23T19:41:19;17.80;56.00
35305;DHT22;26433;48.034;-1.764;2023-05-23T19:46:25;17.70;56.10
35305;DHT22;26433;48.034;-1.764;2023-05-23T19:51:30;17.60;56.40
35305;DHT22;26433;48.034;-1.764;2023-05-23T19:56:33;17.50;56.80
35305;DHT22;26433;48.034;-1.764;2023-05-23T20:01:39;17.40;57.00
35305;DHT22;26433;48.034;-1.764;2023-05-23T20:06:42;17.30;57.20
35305;DHT22;26433;48.034;-1.764;2023-05-23T20:11:46;17.30;57.40
35305;DHT22;26433;48.034;-1.764;2023-05-23T20:16:51;17.20;57.70
35305;DHT22;26433;48.034;-1.764;2023-05-23T20:21:55;17.10;57.90
35305;DHT22;26433;48.034;-1.764;2023-05-23T20:26:58;17.10;58.20
35305;DHT22;26433;48.034;-1.764;2023-05-23T20:32:04;16.90;58.50
35305;DHT22;26433;48.034;-1.764;2023-05-23T20:37:08;16.90;59.00
35305;DHT22;26433;48.034;-1.764;2023-05-23T20:42:15;16.80;59.00
35305;DHT22;26433;48.034;-1.764;2023-05-23T20:47:20;16.80;59.40
35305;DHT22;26433;48.034;-1.764;2023-05-23T20:52:23;16.70;59.50
35305;DHT22;26433;48.034;-1.764;2023-05-23T21:02:32;16.50;59.70
35305;DHT22;26433;48.034;-1.764;2023-05-23T21:07:36;16.50;60.20
35305;DHT22;26433;48.034;-1.764;2023-05-23T21:12:40;16.50;60.50
35305;DHT22;26433;48.034;-1.764;2023-05-23T21:17:51;16.50;60.80
35305;DHT22;26433;48.034;-1.764;2023-05-23T21:22:55;16.50;61.00
35305;DHT22;26433;48.034;-1.764;2023-05-23T21:27:59;16.40;61.20
35305;DHT22;26433;48.034;-1.764;2023-05-23T21:33:04;16.30;61.60
35305;DHT22;26433;48.034;-1.764;2023-05-23T21:38:08;16.30;61.80
35305;DHT22;26433;48.034;-1.764;2023-05-23T21:43:11;16.30;62.00
35305;DHT22;26433;48.034;-1.764;2023-05-23T21:48:16;16.20;62.40
35305;DHT22;26433;48.034;-1.764;2023-05-23T21:53:20;16.10;62.70
35305;DHT22;26433;48.034;-1.764;2023-05-23T21:58:23;16.00;62.90
35305;DHT22;26433;48.034;-1.764;2023-05-23T22:03:28;15.80;62.90
35305;DHT22;26433;48.034;-1.764;2023-05-23T22:08:32;15.80;63.40
35305;DHT22;26433;48.034;-1.764;2023-05-23T22:18:43;15.70;63.20
35305;DHT22;26433;48.034;-1.764;2023-05-23T22:23:50;15.70;64.00
